sensor_id;sensor_type;location;lat;lon;timestamp;pressure;altitude;pressure_sealevel;temperature;humidity
60099;BME280;62818;49.394;8.686;2023-02-13T00:00:13;102413.00;;;4.92;100.00
60099;BME280;62818;49.394;8.686;2023-02-13T00:01:16;102421.13;;;4.58;100.00
60099;BME280;62818;49.394;8.686;2023-02-13T00:02:16;102422.38;;;4.66;100.00
60099;BME280;62818;49.394;8.686;2023-02-13T00:03:17;102418.78;;;5.12;100.00
60099;BME280;62818;49.394;8.686;2023-02-13T00:04:17;102421.88;;;5.19;100.00
60099;BME280;62818;49.394;8.686;2023-02-13T00:05:18;102414.50;;;5.40;100.00
60099;BME280;62818;49.394;8.686;2023-02-13T00:06:19;102406.69;;;5.38;100.00
60099;BME280;62818;49.394;8.686;2023-02-13T00:07:19;102411.00;;;5.53;100.00
60099;BME280;62818;49.394;8.686;2023-02-13T00:08:19;102415.53;;;5.37;100.00
60099;BME280;62818;49.394;8.686;2023-02-13T00:09:20;102406.03;;;4.61;100.00
60099;BME280;62818;49.394;8.686;2023-02-13T00:10:20;102414.94;;;4.59;100.00
60099;BME280;62818;49.394;8.686;2023-02-13T00:11:21;102409.72;;;5.02;100.00
60099;BME280;62818;49.394;8.686;2023-02-13T00:12:22;102415.50;;;5.23;100.00
60099;BME280;62818;49.394;8.686;2023-02-13T00:13:22;102409.06;;;4.99;100.00
60099;BME280;62818;49.394;8.686;2023-02-13T00:14:23;102412.78;;;5.10;100.00
60099;BME280;62818;49.394;8.686;2023-02-13T00:15:23;102404.31;;;5.05;100.00
60099;BME280;62818;49.394;8.686;2023-02-13T00:16:24;102401.41;;;5.10;100.00
60099;BME280;62818;49.394;8.686;2023-02-13T00:17:25;102404.06;;;5.38;100.00
60099;BME280;62818;49.394;8.686;2023-02-13T00:18:27;102399.00;;;5.49;100.00
60099;BME280;62818;49.394;8.686;2023-02-13T00:19:28;102400.81;;;5.05;100.00
60099;BME280;62818;49.394;8.686;2023-02-13T00:20:29;102411.56;;;4.57;100.00
60099;BME280;62818;49.394;8.686;2023-02-13T00:21:29;102402.69;;;4.43;100.00
60099;BME280;62818;49.394;8.686;2023-02-13T00:22:34;102404.13;;;4.49;100.00
60099;BME280;62818;49.394;8.686;2023-02-13T00:23:37;102411.06;;;4.50;100.00
60099;BME280;62818;49.394;8.686;2023-02-13T00:24:38;102412.53;;;4.70;100.00
60099;BME280;62818;49.394;8.686;2023-02-13T00:25:39;102408.69;;;4.91;100.00
60099;BME280;62818;49.394;8.686;2023-02-13T00:26:39;102405.22;;;4.90;100.00
60099;BME280;62818;49.394;8.686;2023-02-13T00:27:40;102405.94;;;4.63;100.00
60099;BME280;62818;49.394;8.686;2023-02-13T00:28:41;102400.88;;;4.89;100.00
60099;BME280;62818;49.394;8.686;2023-02-13T00:29:42;102403.00;;;5.12;100.00
60099;BME280;62818;49.394;8.686;2023-02-13T00:30:42;102398.84;;;4.65;100.00
60099;BME280;62818;49.394;8.686;2023-02-13T00:31:43;102401.28;;;4.22;100.00
60099;BME280;62818;49.394;8.686;2023-02-13T00:32:43;102392.13;;;4.75;100.00
60099;BME280;62818;49.394;8.686;2023-02-13T00:33:43;102398.19;;;5.05;100.00
60099;BME280;62818;49.394;8.686;2023-02-13T00:34:44;102395.78;;;5.16;100.00
60099;BME280;62818;49.394;8.686;2023-02-13T00:35:45;102391.34;;;4.73;100.00
60099;BME280;62818;49.394;8.686;2023-02-13T00:36:45;102392.06;;;4.61;100.00
60099;BME280;62818;49.394;8.686;2023-02-13T00:37:46;102391.78;;;4.65;100.00
60099;BME280;62818;49.394;8.686;2023-02-13T00:38:47;102394.94;;;4.56;100.00
60099;BME280;62818;49.394;8.686;2023-02-13T00:39:48;102399.53;;;4.53;100.00
60099;BME280;62818;49.394;8.686;2023-02-13T00:40:48;102394.78;;;4.59;100.00
60099;BME280;62818;49.394;8.686;2023-02-13T00:41:49;102396.50;;;4.44;100.00
60099;BME280;62818;49.394;8.686;2023-02-13T00:42:49;102398.66;;;4.22;100.00
60099;BME280;62818;49.394;8.686;2023-02-13T00:43:50;102393.50;;;4.66;100.00
60099;BME280;62818;49.394;8.686;2023-02-13T00:44:51;102396.38;;;4.62;100.00
60099;BME280;62818;49.394;8.686;2023-02-13T00:45:52;102394.75;;;4.75;100.00
60099;BME280;62818;49.394;8.686;2023-02-13T00:46:53;102386.63;;;4.64;100.00
60099;BME280;62818;49.394;8.686;2023-02-13T00:47:53;102390.19;;;4.63;100.00
60099;BME280;62818;49.394;8.686;2023-02-13T00:48:54;102400.34;;;4.69;100.00
60099;BME280;62818;49.394;8.686;2023-02-13T00:49:54;102384.81;;;4.34;100.00
60099;BME280;62818;49.394;8.686;2023-02-13T00:50:55;102389.25;;;4.03;100.00
60099;BME280;62818;49.394;8.686;2023-02-13T00:51:56;102390.81;;;4.36;100.00
60099;BME280;62818;49.394;8.686;2023-02-13T00:52:57;102393.00;;;4.60;100.00
60099;BME280;62818;49.394;8.686;2023-02-13T00:53:57;102391.25;;;4.44;100.00
60099;BME280;62818;49.394;8.686;2023-02-13T00:54:58;102390.66;;;4.39;100.00
60099;BME280;62818;49.394;8.686;2023-02-13T00:55:59;102404.44;;;4.59;100.00
60099;BME280;62818;49.394;8.686;2023-02-13T00:57:00;102391.19;;;4.76;100.00
60099;BME280;62818;49.394;8.686;2023-02-13T00:58:00;102403.91;;;4.68;100.00
60099;BME280;62818;49.394;8.686;2023-02-13T00:59:01;102395.00;;;4.09;100.00
60099;BME280;62818;49.394;8.686;2023-02-13T01:00:02;102391.38;;;3.96;100.00
60099;BME280;62818;49.394;8.686;2023-02-13T01:01:03;102392.69;;;4.34;100.00
60099;BME280;62818;49.394;8.686;2023-02-13T01:02:03;102398.25;;;4.60;100.00
60099;BME280;62818;49.394;8.686;2023-02-13T01:03:04;102399.53;;;4.53;100.00
60099;BME280;62818;49.394;8.686;2023-02-13T01:04:05;102404.78;;;4.53;100.00
60099;BME280;62818;49.394;8.686;2023-02-13T01:05:06;102402.88;;;4.25;100.00
60099;BME280;62818;49.394;8.686;2023-02-13T01:06:07;102404.22;;;3.85;100.00
60099;BME280;62818;49.394;8.686;2023-02-13T01:07:07;102395.84;;;4.10;100.00
60099;BME280;62818;49.394;8.686;2023-02-13T01:08:08;102404.09;;;4.65;100.00
60099;BME280;62818;49.394;8.686;2023-02-13T01:09:09;102403.69;;;4.86;100.00
60099;BME280;62818;49.394;8.686;2023-02-13T01:10:10;102397.59;;;4.86;100.00
60099;BME280;62818;49.394;8.686;2023-02-13T01:11:11;102399.22;;;4.27;100.00
60099;BME280;62818;49.394;8.686;2023-02-13T01:12:11;102397.38;;;3.83;100.00
60099;BME280;62818;49.394;8.686;2023-02-13T01:13:13;102410.66;;;3.95;100.00
60099;BME280;62818;49.394;8.686;2023-02-13T01:14:15;102393.28;;;4.39;100.00
60099;BME280;62818;49.394;8.686;2023-02-13T01:15:15;102396.41;;;4.46;100.00
60099;BME280;62818;49.394;8.686;2023-02-13T01:16:16;102395.28;;;4.66;100.00
60099;BME280;62818;49.394;8.686;2023-02-13T01:17:17;102400.97;;;4.88;100.00
60099;BME280;62818;49.394;8.686;2023-02-13T01:18:18;102403.66;;;4.57;100.00
60099;BME280;62818;49.394;8.686;2023-02-13T01:19:19;102400.56;;;4.03;100.00
60099;BME280;62818;49.394;8.686;2023-02-13T01:20:20;102412.94;;;3.70;100.00
60099;BME280;62818;49.394;8.686;2023-02-13T01:21:21;102406.53;;;4.22;100.00
60099;BME280;62818;49.394;8.686;2023-02-13T01:22:23;102402.56;;;4.61;100.00
60099;BME280;62818;49.394;8.686;2023-02-13T01:23:24;102403.19;;;4.50;100.00
60099;BME280;62818;49.394;8.686;2023-02-13T01:24:24;102409.53;;;4.46;100.00
60099;BME280;62818;49.394;8.686;2023-02-13T01:25:29;102409.75;;;4.12;100.00
60099;BME280;62818;49.394;8.686;2023-02-13T01:26:29;102401.91;;;4.41;100.00
60099;BME280;62818;49.394;8.686;2023-02-13T01:27:30;102409.69;;;4.59;100.00
60099;BME280;62818;49.394;8.686;2023-02-13T01:28:31;102408.63;;;4.77;100.00
60099;BME280;62818;49.394;8.686;2023-02-13T01:29:32;102410.00;;;4.68;100.00
60099;BME280;62818;49.394;8.686;2023-02-13T01:30:33;102407.81;;;4.61;100.00
60099;BME280;62818;49.394;8.686;2023-02-13T01:31:33;102412.69;;;4.21;100.00
60099;BME280;62818;49.394;8.686;2023-02-13T01:32:34;102411.38;;;3.66;100.00
60099;BME280;62818;49.394;8.686;2023-02-13T01:33:35;102411.56;;;3.63;100.00
60099;BME280;62818;49.394;8.686;2023-02-13T01:34:35;102405.81;;;4.19;100.00
60099;BME280;62818;49.394;8.686;2023-02-13T01:35:38;102405.31;;;4.43;100.00
60099;BME280;62818;49.394;8.686;2023-02-13T01:36:39;102406.16;;;4.28;100.00
60099;BME280;62818;49.394;8.686;2023-02-13T01:37:40;102402.84;;;3.78;100.00
60099;BME280;62818;49.394;8.686;2023-02-13T01:38:41;102407.41;;;3.59;100.00
60099;BME280;62818;49.394;8.686;2023-02-13T01:39:42;102400.91;;;3.82;100.00
60099;BME280;62818;49.394;8.686;2023-02-13T01:40:44;102395.84;;;4.25;100.00
60099;BME280;62818;49.394;8.686;2023-02-13T01:41:46;102398.03;;;4.33;100.00
60099;BME280;62818;49.394;8.686;2023-02-13T01:42:47;102409.88;;;4.56;100.00
60099;BME280;62818;49.394;8.686;2023-02-13T01:43:53;102403.13;;;4.20;100.00
60099;BME280;62818;49.394;8.686;2023-02-13T01:45:01;102401.25;;;3.91;100.00
60099;BME280;62818;49.394;8.686;2023-02-13T01:46:04;102398.47;;;4.10;100.00
60099;BME280;62818;49.394;8.686;2023-02-13T01:47:04;102398.53;;;4.39;100.00
60099;BME280;62818;49.394;8.686;2023-02-13T01:48:10;102402.44;;;4.32;100.00
60099;BME280;62818;49.394;8.686;2023-02-13T01:49:21;102400.75;;;4.31;100.00
60099;BME280;62818;49.394;8.686;2023-02-13T01:51:39;102405.06;;;3.70;100.00
60099;BME280;62818;49.394;8.686;2023-02-13T01:52:45;102408.44;;;4.03;100.00
60099;BME280;62818;49.394;8.686;2023-02-13T01:53:54;102398.22;;;4.14;100.00
60099;BME280;62818;49.394;8.686;2023-02-13T01:54:59;102404.94;;;4.49;100.00
60099;BME280;62818;49.394;8.686;2023-02-13T01:56:23;102405.56;;;4.23;100.00
60099;BME280;62818;49.394;8.686;2023-02-13T01:57:28;102403.78;;;3.77;100.00
60099;BME280;62818;49.394;8.686;2023-02-13T01:58:34;102399.84;;;3.53;100.00
60099;BME280;62818;49.394;8.686;2023-02-13T01:59:52;102402.09;;;3.76;100.00
60099;BME280;62818;49.394;8.686;2023-02-13T02:00:58;102399.22;;;4.27;100.00
60099;BME280;62818;49.394;8.686;2023-02-13T02:02:00;102398.13;;;4.31;100.00
60099;BME280;62818;49.394;8.686;2023-02-13T02:03:05;102398.53;;;3.77;100.00
60099;BME280;62818;49.394;8.686;2023-02-13T02:04:44;102400.41;;;4.06;100.00
60099;BME280;62818;49.394;8.686;2023-02-13T02:05:48;102398.69;;;4.36;100.00
60099;BME280;62818;49.394;8.686;2023-02-13T02:07:13;102403.44;;;4.45;100.00
60099;BME280;62818;49.394;8.686;2023-02-13T02:08:18;102397.69;;;3.92;100.00
60099;BME280;62818;49.394;8.686;2023-02-13T02:09:27;102398.22;;;3.83;100.00
60099;BME280;62818;49.394;8.686;2023-02-13T02:10:32;102406.56;;;3.74;100.00
60099;BME280;62818;49.394;8.686;2023-02-13T02:11:56;102398.22;;;3.83;100.00
60099;BME280;62818;49.394;8.686;2023-02-13T02:13:06;102400.88;;;3.66;100.00
60099;BME280;62818;49.394;8.686;2023-02-13T02:14:11;102409.75;;;3.96;100.00
60099;BME280;62818;49.394;8.686;2023-02-13T02:15:11;102403.63;;;4.42;100.00
60099;BME280;62818;49.394;8.686;2023-02-13T02:16:12;102393.97;;;4.27;100.00
60099;BME280;62818;49.394;8.686;2023-02-13T02:17:13;102404.41;;;4.29;100.00
60099;BME280;62818;49.394;8.686;2023-02-13T02:18:20;102404.94;;;3.56;100.00
60099;BME280;62818;49.394;8.686;2023-02-13T02:32:40;102393.13;;;3.80;100.00
60099;BME280;62818;49.394;8.686;2023-02-13T02:41:50;102401.34;;;3.74;100.00
60099;BME280;62818;49.394;8.686;2023-02-13T02:42:56;102402.63;;;3.98;100.00
60099;BME280;62818;49.394;8.686;2023-02-13T02:44:32;102401.53;;;4.18;100.00
60099;BME280;62818;49.394;8.686;2023-02-13T02:47:19;102406.00;;;4.31;100.00
60099;BME280;62818;49.394;8.686;2023-02-13T02:50:37;102399.75;;;4.18;100.00
60099;BME280;62818;49.394;8.686;2023-02-13T02:55:03;102402.72;;;3.81;100.00
60099;BME280;62818;49.394;8.686;2023-02-13T02:56:36;102406.00;;;4.31;100.00
60099;BME280;62818;49.394;8.686;2023-02-13T02:57:44;102404.63;;;4.56;100.00
60099;BME280;62818;49.394;8.686;2023-02-13T02:59:15;102407.41;;;3.90;100.00
60099;BME280;62818;49.394;8.686;2023-02-13T03:00:40;102412.38;;;3.48;100.00
60099;BME280;62818;49.394;8.686;2023-02-13T03:02:01;102406.94;;;3.99;100.00
60099;BME280;62818;49.394;8.686;2023-02-13T03:03:22;102406.53;;;4.07;100.00
60099;BME280;62818;49.394;8.686;2023-02-13T03:04:46;102396.59;;;4.27;100.00
60099;BME280;62818;49.394;8.686;2023-02-13T03:06:19;102395.47;;;3.69;100.00
60099;BME280;62818;49.394;8.686;2023-02-13T03:07:25;102405.88;;;3.38;100.00
60099;BME280;62818;49.394;8.686;2023-02-13T03:08:28;102403.44;;;3.35;100.00
60099;BME280;62818;49.394;8.686;2023-02-13T03:09:51;102403.81;;;4.08;100.00
60099;BME280;62818;49.394;8.686;2023-02-13T03:11:14;102402.28;;;4.04;100.00
60099;BME280;62818;49.394;8.686;2023-02-13T03:12:56;102399.94;;;3.51;100.00
60099;BME280;62818;49.394;8.686;2023-02-13T03:14:19;102406.84;;;3.20;100.00
60099;BME280;62818;49.394;8.686;2023-02-13T03:15:22;102413.44;;;3.44;100.00
60099;BME280;62818;49.394;8.686;2023-02-13T03:16:25;102410.91;;;3.91;100.00
60099;BME280;62818;49.394;8.686;2023-02-13T03:17:44;102416.88;;;3.77;100.00
60099;BME280;62818;49.394;8.686;2023-02-13T03:19:03;102419.56;;;4.24;100.00
60099;BME280;62818;49.394;8.686;2023-02-13T03:20:30;102416.84;;;3.94;100.00
60099;BME280;62818;49.394;8.686;2023-02-13T03:27:48;102427.34;;;3.94;100.00
60099;BME280;62818;49.394;8.686;2023-02-13T03:30:00;102421.72;;;3.69;100.00
60099;BME280;62818;49.394;8.686;2023-02-13T03:33:08;102421.03;;;3.65;100.00
60099;BME280;62818;49.394;8.686;2023-02-13T03:34:22;102423.78;;;4.11;100.00
60099;BME280;62818;49.394;8.686;2023-02-13T03:37:33;102433.97;;;3.36;100.00
60099;BME280;62818;49.394;8.686;2023-02-13T03:39:21;102426.78;;;3.72;100.00
60099;BME280;62818;49.394;8.686;2023-02-13T03:41:17;102438.06;;;3.57;100.00
60099;BME280;62818;49.394;8.686;2023-02-13T03:43:51;102438.81;;;3.76;100.00
60099;BME280;62818;49.394;8.686;2023-02-13T03:45:11;102441.16;;;3.65;100.00
60099;BME280;62818;49.394;8.686;2023-02-13T03:46:44;102438.56;;;3.81;100.00
60099;BME280;62818;49.394;8.686;2023-02-13T03:47:52;102448.25;;;3.63;100.00
60099;BME280;62818;49.394;8.686;2023-02-13T03:48:57;102446.41;;;3.65;100.00
60099;BME280;62818;49.394;8.686;2023-02-13T03:50:18;102449.94;;;3.14;100.00
60099;BME280;62818;49.394;8.686;2023-02-13T03:51:54;102444.06;;;2.92;100.00
60099;BME280;62818;49.394;8.686;2023-02-13T03:53:03;102437.66;;;3.32;100.00
60099;BME280;62818;49.394;8.686;2023-02-13T03:55:45;102438.34;;;3.68;100.00
60099;BME280;62818;49.394;8.686;2023-02-13T03:57:06;102441.16;;;3.65;100.00
60099;BME280;62818;49.394;8.686;2023-02-13T03:58:30;102441.91;;;3.67;100.00
60099;BME280;62818;49.394;8.686;2023-02-13T03:59:58;102447.66;;;3.58;100.00
60099;BME280;62818;49.394;8.686;2023-02-13T04:01:05;102441.34;;;3.78;100.00
60099;BME280;62818;49.394;8.686;2023-02-13T04:02:13;102450.56;;;3.69;100.00
60099;BME280;62818;49.394;8.686;2023-02-13T04:03:43;102452.13;;;3.56;100.00
60099;BME280;62818;49.394;8.686;2023-02-13T04:05:09;102446.06;;;3.71;100.00
60099;BME280;62818;49.394;8.686;2023-02-13T04:06:19;102440.44;;;3.29;100.00
60099;BME280;62818;49.394;8.686;2023-02-13T04:07:24;102447.78;;;3.72;100.00
60099;BME280;62818;49.394;8.686;2023-02-13T04:08:32;102449.16;;;3.62;100.00
60099;BME280;62818;49.394;8.686;2023-02-13T04:09:35;102446.63;;;3.93;100.00
60099;BME280;62818;49.394;8.686;2023-02-13T04:10:48;102452.06;;;3.40;100.00
60099;BME280;62818;49.394;8.686;2023-02-13T04:12:25;102443.72;;;3.49;100.00
60099;BME280;62818;49.394;8.686;2023-02-13T04:13:41;102440.81;;;3.71;100.00
60099;BME280;62818;49.394;8.686;2023-02-13T04:14:53;102442.44;;;3.41;100.00
60099;BME280;62818;49.394;8.686;2023-02-13T04:16:09;102440.38;;;3.30;100.00
60099;BME280;62818;49.394;8.686;2023-02-13T04:17:26;102440.44;;;3.46;100.00
60099;BME280;62818;49.394;8.686;2023-02-13T04:18:32;102435.97;;;3.31;100.00
60099;BME280;62818;49.394;8.686;2023-02-13T04:19:34;102441.31;;;3.62;100.00
60099;BME280;62818;49.394;8.686;2023-02-13T04:20:36;102438.00;;;3.26;100.00
60099;BME280;62818;49.394;8.686;2023-02-13T04:21:38;102438.19;;;2.70;100.00
60099;BME280;62818;49.394;8.686;2023-02-13T04:22:44;102435.28;;;3.27;100.00
60099;BME280;62818;49.394;8.686;2023-02-13T04:23:46;102428.75;;;3.51;100.00
60099;BME280;62818;49.394;8.686;2023-02-13T04:24:46;102436.50;;;3.37;100.00
60099;BME280;62818;49.394;8.686;2023-02-13T04:25:49;102442.84;;;2.82;100.00
60099;BME280;62818;49.394;8.686;2023-02-13T04:26:53;102433.50;;;2.93;100.00
60099;BME280;62818;49.394;8.686;2023-02-13T04:27:54;102437.34;;;3.38;100.00
60099;BME280;62818;49.394;8.686;2023-02-13T04:28:55;102433.81;;;3.05;100.00
60099;BME280;62818;49.394;8.686;2023-02-13T04:29:55;102435.59;;;3.21;100.00
60099;BME280;62818;49.394;8.686;2023-02-13T04:30:56;102439.06;;;3.05;100.00
60099;BME280;62818;49.394;8.686;2023-02-13T04:31:56;102433.16;;;2.48;100.00
60099;BME280;62818;49.394;8.686;2023-02-13T04:32:57;102431.81;;;3.10;100.00
60099;BME280;62818;49.394;8.686;2023-02-13T04:33:58;102429.00;;;3.47;100.00
60099;BME280;62818;49.394;8.686;2023-02-13T04:34:58;102442.03;;;2.63;100.00
60099;BME280;62818;49.394;8.686;2023-02-13T04:35:59;102429.91;;;2.43;100.00
60099;BME280;62818;49.394;8.686;2023-02-13T04:36:59;102425.81;;;2.90;100.00
60099;BME280;62818;49.394;8.686;2023-02-13T04:38:00;102429.25;;;3.42;100.00
60099;BME280;62818;49.394;8.686;2023-02-13T04:39:01;102442.03;;;2.80;100.00
60099;BME280;62818;49.394;8.686;2023-02-13T04:40:02;102441.44;;;2.39;100.00
60099;BME280;62818;49.394;8.686;2023-02-13T04:41:02;102433.13;;;3.01;100.00
60099;BME280;62818;49.394;8.686;2023-02-13T04:42:03;102430.88;;;2.59;100.00
60099;BME280;62818;49.394;8.686;2023-02-13T04:43:04;102439.56;;;2.24;100.00
60099;BME280;62818;49.394;8.686;2023-02-13T04:44:04;102441.06;;;2.11;100.00
60099;BME280;62818;49.394;8.686;2023-02-13T04:45:05;102435.94;;;2.62;100.00
60099;BME280;62818;49.394;8.686;2023-02-13T04:46:05;102426.97;;;2.85;100.00
60099;BME280;62818;49.394;8.686;2023-02-13T04:47:06;102432.41;;;2.63;100.00
60099;BME280;62818;49.394;8.686;2023-02-13T04:48:07;102434.44;;;2.21;100.00
60099;BME280;62818;49.394;8.686;2023-02-13T04:49:09;102434.50;;;2.74;100.00
60099;BME280;62818;49.394;8.686;2023-02-13T04:50:10;102438.34;;;2.31;100.00
60099;BME280;62818;49.394;8.686;2023-02-13T04:51:11;102430.34;;;2.87;100.00
60099;BME280;62818;49.394;8.686;2023-02-13T04:52:11;102433.25;;;2.64;100.00
60099;BME280;62818;49.394;8.686;2023-02-13T04:53:14;102436.75;;;2.64;100.00
60099;BME280;62818;49.394;8.686;2023-02-13T04:54:14;102444.72;;;2.61;100.00
60099;BME280;62818;49.394;8.686;2023-02-13T04:55:15;102432.84;;;2.54;100.00
60099;BME280;62818;49.394;8.686;2023-02-13T04:56:15;102426.97;;;2.85;100.00
60099;BME280;62818;49.394;8.686;2023-02-13T04:57:16;102435.09;;;2.26;100.00
60099;BME280;62818;49.394;8.686;2023-02-13T04:58:16;102433.66;;;2.73;100.00
60099;BME280;62818;49.394;8.686;2023-02-13T04:59:17;102433.38;;;2.79;100.00
60099;BME280;62818;49.394;8.686;2023-02-13T05:00:19;102435.28;;;2.40;100.00
60099;BME280;62818;49.394;8.686;2023-02-13T05:01:24;102431.03;;;2.73;100.00
60099;BME280;62818;49.394;8.686;2023-02-13T05:02:24;102432.03;;;2.35;100.00
60099;BME280;62818;49.394;8.686;2023-02-13T05:03:25;102435.00;;;2.28;100.00
60099;BME280;62818;49.394;8.686;2023-02-13T05:04:25;102439.06;;;2.52;100.00
60099;BME280;62818;49.394;8.686;2023-02-13T05:05:27;102441.09;;;2.28;100.00
60099;BME280;62818;49.394;8.686;2023-02-13T05:06:28;102435.22;;;2.77;100.00
60099;BME280;62818;49.394;8.686;2023-02-13T05:07:28;102433.03;;;3.20;100.00
60099;BME280;62818;49.394;8.686;2023-02-13T05:08:29;102434.41;;;2.58;100.00
60099;BME280;62818;49.394;8.686;2023-02-13T05:09:29;102437.56;;;2.65;100.00
60099;BME280;62818;49.394;8.686;2023-02-13T05:10:30;102435.94;;;2.62;100.00
60099;BME280;62818;49.394;8.686;2023-02-13T05:11:30;102446.38;;;2.81;100.00
60099;BME280;62818;49.394;8.686;2023-02-13T05:12:31;102433.28;;;2.98;100.00
60099;BME280;62818;49.394;8.686;2023-02-13T05:13:32;102434.97;;;3.33;100.00
60099;BME280;62818;49.394;8.686;2023-02-13T05:14:32;102439.44;;;2.80;100.00
60099;BME280;62818;49.394;8.686;2023-02-13T05:15:33;102438.44;;;2.82;100.00
60099;BME280;62818;49.394;8.686;2023-02-13T05:16:34;102434.59;;;3.24;100.00
60099;BME280;62818;49.394;8.686;2023-02-13T05:17:34;102438.88;;;2.73;100.00
60099;BME280;62818;49.394;8.686;2023-02-13T05:18:35;102436.97;;;2.94;100.00
60099;BME280;62818;49.394;8.686;2023-02-13T05:19:35;102434.22;;;3.14;100.00
60099;BME280;62818;49.394;8.686;2023-02-13T05:20:36;102438.91;;;3.08;100.00
60099;BME280;62818;49.394;8.686;2023-02-13T05:21:36;102436.66;;;2.66;100.00
60099;BME280;62818;49.394;8.686;2023-02-13T05:22:55;102438.09;;;2.54;100.00
60099;BME280;62818;49.394;8.686;2023-02-13T05:24:14;102440.13;;;3.00;100.00
60099;BME280;62818;49.394;8.686;2023-02-13T05:25:15;102441.38;;;2.93;100.00
60099;BME280;62818;49.394;8.686;2023-02-13T05:26:15;102432.84;;;2.54;100.00
60099;BME280;62818;49.394;8.686;2023-02-13T05:27:16;102429.91;;;2.43;100.00
60099;BME280;62818;49.394;8.686;2023-02-13T05:28:16;102430.44;;;2.68;100.00
60099;BME280;62818;49.394;8.686;2023-02-13T05:29:35;102431.13;;;2.89;100.00
60099;BME280;62818;49.394;8.686;2023-02-13T05:30:36;102433.91;;;3.03;100.00
60099;BME280;62818;49.394;8.686;2023-02-13T05:31:38;102431.47;;;3.33;100.00
60099;BME280;62818;49.394;8.686;2023-02-13T05:32:38;102433.63;;;2.56;100.00
60099;BME280;62818;49.394;8.686;2023-02-13T05:33:39;102431.53;;;2.46;100.00
60099;BME280;62818;49.394;8.686;2023-02-13T05:34:39;102432.19;;;2.85;100.00
60099;BME280;62818;49.394;8.686;2023-02-13T05:35:40;102437.22;;;3.07;100.00
60099;BME280;62818;49.394;8.686;2023-02-13T05:36:40;102435.91;;;2.81;100.00
60099;BME280;62818;49.394;8.686;2023-02-13T05:37:41;102437.66;;;2.63;100.00
60099;BME280;62818;49.394;8.686;2023-02-13T05:38:41;102441.88;;;2.66;100.00
60099;BME280;62818;49.394;8.686;2023-02-13T05:39:42;102436.28;;;2.38;100.00
60099;BME280;62818;49.394;8.686;2023-02-13T05:40:42;102441.81;;;2.84;100.00
60099;BME280;62818;49.394;8.686;2023-02-13T05:41:44;102436.75;;;3.16;100.00
60099;BME280;62818;49.394;8.686;2023-02-13T05:42:45;102426.09;;;2.84;100.00
60099;BME280;62818;49.394;8.686;2023-02-13T05:43:46;102433.63;;;2.02;100.00
60099;BME280;62818;49.394;8.686;2023-02-13T05:44:46;102442.66;;;1.76;100.00
60099;BME280;62818;49.394;8.686;2023-02-13T05:45:47;102436.00;;;1.88;100.00
60099;BME280;62818;49.394;8.686;2023-02-13T05:46:48;102424.53;;;2.46;100.00
60099;BME280;62818;49.394;8.686;2023-02-13T05:47:48;102426.38;;;2.97;100.00
60099;BME280;62818;49.394;8.686;2023-02-13T05:48:49;102429.56;;;3.02;100.00
60099;BME280;62818;49.394;8.686;2023-02-13T05:49:49;102435.84;;;2.47;100.00
60099;BME280;62818;49.394;8.686;2023-02-13T05:50:49;102427.66;;;2.36;100.00
60099;BME280;62818;49.394;8.686;2023-02-13T05:51:50;102429.75;;;2.46;100.00
60099;BME280;62818;49.394;8.686;2023-02-13T05:52:51;102435.16;;;2.60;100.00
60099;BME280;62818;49.394;8.686;2023-02-13T05:53:51;102432.16;;;3.04;100.00
60099;BME280;62818;49.394;8.686;2023-02-13T05:54:52;102433.34;;;3.14;100.00
60099;BME280;62818;49.394;8.686;2023-02-13T05:55:52;102432.44;;;3.32;100.00
60099;BME280;62818;49.394;8.686;2023-02-13T05:56:53;102435.66;;;2.85;100.00
60099;BME280;62818;49.394;8.686;2023-02-13T05:57:57;102420.19;;;2.81;100.00
60099;BME280;62818;49.394;8.686;2023-02-13T05:58:57;102428.66;;;3.20;100.00
60099;BME280;62818;49.394;8.686;2023-02-13T05:59:58;102424.72;;;3.29;100.00
60099;BME280;62818;49.394;8.686;2023-02-13T06:00:59;102428.88;;;2.64;100.00
60099;BME280;62818;49.394;8.686;2023-02-13T06:02:00;102425.97;;;2.16;100.00
60099;BME280;62818;49.394;8.686;2023-02-13T06:03:00;102427.44;;;2.03;100.00
60099;BME280;62818;49.394;8.686;2023-02-13T06:04:01;102424.41;;;2.12;100.00
60099;BME280;62818;49.394;8.686;2023-02-13T06:05:01;102421.47;;;2.55;100.00
60099;BME280;62818;49.394;8.686;2023-02-13T06:06:02;102422.13;;;2.94;100.00
60099;BME280;62818;49.394;8.686;2023-02-13T06:07:03;102422.34;;;2.90;100.00
60099;BME280;62818;49.394;8.686;2023-02-13T06:08:03;102425.09;;;2.53;100.00
60099;BME280;62818;49.394;8.686;2023-02-13T06:09:04;102431.56;;;2.08;100.00
60099;BME280;62818;49.394;8.686;2023-02-13T06:10:05;102424.84;;;2.03;100.00
60099;BME280;62818;49.394;8.686;2023-02-13T06:11:06;102421.50;;;2.72;100.00
60099;BME280;62818;49.394;8.686;2023-02-13T06:12:07;102423.78;;;2.95;100.00
60099;BME280;62818;49.394;8.686;2023-02-13T06:13:08;102422.13;;;2.42;100.00
60099;BME280;62818;49.394;8.686;2023-02-13T06:14:10;102430.22;;;2.00;100.00
60099;BME280;62818;49.394;8.686;2023-02-13T06:15:11;102427.03;;;2.12;100.00
60099;BME280;62818;49.394;8.686;2023-02-13T06:16:11;102423.16;;;2.73;100.00
60099;BME280;62818;49.394;8.686;2023-02-13T06:17:12;102421.41;;;2.38;100.00
60099;BME280;62818;49.394;8.686;2023-02-13T06:18:13;102430.84;;;2.05;100.00
60099;BME280;62818;49.394;8.686;2023-02-13T06:19:13;102427.09;;;1.92;100.00
60099;BME280;62818;49.394;8.686;2023-02-13T06:20:14;102425.00;;;2.00;100.00
60099;BME280;62818;49.394;8.686;2023-02-13T06:21:14;102426.81;;;2.35;100.00
60099;BME280;62818;49.394;8.686;2023-02-13T06:22:15;102432.97;;;2.51;100.00
60099;BME280;62818;49.394;8.686;2023-02-13T06:23:15;102433.81;;;2.70;100.00